sensor_id;sensor_type;location;lat;lon;timestamp;P1;durP1;ratioP1;P2;durP2;ratioP2
74528;SDS011;63009;52.584;5.932;2023-05-07T00:00:45;24.65;;;16.38;;
74528;SDS011;63009;52.584;5.932;2023-05-07T00:03:10;24.13;;;15.50;;
74528;SDS011;63009;52.584;5.932;2023-05-07T00:05:36;23.90;;;14.55;;
74528;SDS011;63009;52.584;5.932;2023-05-07T00:08:02;20.90;;;14.63;;
74528;SDS011;63009;52.584;5.932;2023-05-07T00:10:28;22.02;;;13.95;;
74528;SDS011;63009;52.584;5.932;2023-05-07T00:12:53;23.40;;;14.93;;
74528;SDS011;63009;52.584;5.932;2023-05-07T00:15:19;22.98;;;14.32;;
74528;SDS011;63009;52.584;5.932;2023-05-07T00:17:44;20.35;;;13.23;;
74528;SDS011;63009;52.584;5.932;2023-05-07T00:20:10;21.70;;;14.20;;
74528;SDS011;63009;52.584;5.932;2023-05-07T00:22:35;23.45;;;15.13;;
74528;SDS011;63009;52.584;5.932;2023-05-07T00:25:01;20.67;;;14.40;;
74528;SDS011;63009;52.584;5.932;2023-05-07T00:27:26;22.47;;;14.80;;
74528;SDS011;63009;52.584;5.932;2023-05-07T00:29:51;20.57;;;13.70;;
74528;SDS011;63009;52.584;5.932;2023-05-07T00:32:16;23.37;;;15.07;;
74528;SDS011;63009;52.584;5.932;2023-05-07T00:34:42;19.33;;;13.23;;
74528;SDS011;63009;52.584;5.932;2023-05-07T00:37:08;20.38;;;13.23;;
74528;SDS011;63009;52.584;5.932;2023-05-07T00:39:33;21.05;;;13.57;;
74528;SDS011;63009;52.584;5.932;2023-05-07T00:41:59;19.67;;;13.65;;
74528;SDS011;63009;52.584;5.932;2023-05-07T00:44:25;18.00;;;13.15;;
74528;SDS011;63009;52.584;5.932;2023-05-07T00:46:51;19.85;;;14.20;;
74528;SDS011;63009;52.584;5.932;2023-05-07T00:49:16;19.50;;;12.52;;
74528;SDS011;63009;52.584;5.932;2023-05-07T00:51:43;18.05;;;13.52;;
74528;SDS011;63009;52.584;5.932;2023-05-07T00:54:09;18.48;;;12.88;;
74528;SDS011;63009;52.584;5.932;2023-05-07T00:56:36;16.95;;;12.82;;
74528;SDS011;63009;52.584;5.932;2023-05-07T00:59:02;16.58;;;12.13;;
74528;SDS011;63009;52.584;5.932;2023-05-07T01:01:28;18.52;;;13.80;;
74528;SDS011;63009;52.584;5.932;2023-05-07T01:03:54;18.48;;;13.48;;
74528;SDS011;63009;52.584;5.932;2023-05-07T01:06:19;18.50;;;12.87;;
74528;SDS011;63009;52.584;5.932;2023-05-07T01:08:47;20.60;;;13.65;;
74528;SDS011;63009;52.584;5.932;2023-05-07T01:11:15;20.10;;;13.60;;
74528;SDS011;63009;52.584;5.932;2023-05-07T01:13:41;18.98;;;13.75;;
74528;SDS011;63009;52.584;5.932;2023-05-07T01:16:08;19.17;;;13.55;;
74528;SDS011;63009;52.584;5.932;2023-05-07T01:18:34;22.95;;;13.95;;
74528;SDS011;63009;52.584;5.932;2023-05-07T01:21:00;23.60;;;14.82;;
74528;SDS011;63009;52.584;5.932;2023-05-07T01:23:28;21.52;;;15.18;;
74528;SDS011;63009;52.584;5.932;2023-05-07T01:25:55;23.25;;;15.15;;
74528;SDS011;63009;52.584;5.932;2023-05-07T01:28:21;23.05;;;15.25;;
74528;SDS011;63009;52.584;5.932;2023-05-07T01:30:48;22.47;;;15.80;;
74528;SDS011;63009;52.584;5.932;2023-05-07T01:33:18;22.35;;;16.58;;
74528;SDS011;63009;52.584;5.932;2023-05-07T01:35:47;24.27;;;16.42;;
74528;SDS011;63009;52.584;5.932;2023-05-07T01:38:15;22.05;;;15.50;;
74528;SDS011;63009;52.584;5.932;2023-05-07T01:40:41;22.58;;;15.95;;
74528;SDS011;63009;52.584;5.932;2023-05-07T01:43:06;23.02;;;16.08;;
74528;SDS011;63009;52.584;5.932;2023-05-07T01:45:32;21.33;;;15.52;;
74528;SDS011;63009;52.584;5.932;2023-05-07T01:47:59;20.40;;;14.32;;
74528;SDS011;63009;52.584;5.932;2023-05-07T01:50:25;21.52;;;14.50;;
74528;SDS011;63009;52.584;5.932;2023-05-07T01:52:52;20.27;;;14.18;;
74528;SDS011;63009;52.584;5.932;2023-05-07T01:55:17;22.77;;;16.65;;
74528;SDS011;63009;52.584;5.932;2023-05-07T01:57:43;24.27;;;14.82;;
74528;SDS011;63009;52.584;5.932;2023-05-07T02:00:08;21.30;;;15.50;;
74528;SDS011;63009;52.584;5.932;2023-05-07T02:02:34;25.33;;;18.08;;
74528;SDS011;63009;52.584;5.932;2023-05-07T02:05:00;26.05;;;18.00;;
74528;SDS011;63009;52.584;5.932;2023-05-07T02:07:26;26.55;;;17.42;;
74528;SDS011;63009;52.584;5.932;2023-05-07T02:09:52;25.35;;;18.05;;
74528;SDS011;63009;52.584;5.932;2023-05-07T02:12:17;25.30;;;18.15;;
74528;SDS011;63009;52.584;5.932;2023-05-07T02:14:43;29.67;;;20.73;;
74528;SDS011;63009;52.584;5.932;2023-05-07T02:17:08;28.13;;;19.57;;
74528;SDS011;63009;52.584;5.932;2023-05-07T02:19:33;32.97;;;20.92;;
74528;SDS011;63009;52.584;5.932;2023-05-07T02:21:59;31.48;;;21.65;;
74528;SDS011;63009;52.584;5.932;2023-05-07T02:24:24;31.50;;;22.43;;
74528;SDS011;63009;52.584;5.932;2023-05-07T02:26:49;27.27;;;20.80;;
74528;SDS011;63009;52.584;5.932;2023-05-07T02:29:15;27.00;;;21.13;;
74528;SDS011;63009;52.584;5.932;2023-05-07T02:31:40;31.77;;;23.13;;
74528;SDS011;63009;52.584;5.932;2023-05-07T02:34:05;31.00;;;20.80;;
74528;SDS011;63009;52.584;5.932;2023-05-07T02:36:31;28.58;;;21.33;;
74528;SDS011;63009;52.584;5.932;2023-05-07T02:38:56;32.35;;;22.73;;
74528;SDS011;63009;52.584;5.932;2023-05-07T02:41:21;31.13;;;22.50;;
74528;SDS011;63009;52.584;5.932;2023-05-07T02:43:47;29.73;;;22.23;;
74528;SDS011;63009;52.584;5.932;2023-05-07T02:46:12;30.10;;;22.37;;
74528;SDS011;63009;52.584;5.932;2023-05-07T02:48:37;31.33;;;22.50;;
74528;SDS011;63009;52.584;5.932;2023-05-07T02:51:03;29.52;;;21.25;;
74528;SDS011;63009;52.584;5.932;2023-05-07T02:53:29;29.00;;;21.77;;
74528;SDS011;63009;52.584;5.932;2023-05-07T02:55:57;27.23;;;19.67;;
74528;SDS011;63009;52.584;5.932;2023-05-07T02:58:24;30.52;;;21.35;;
74528;SDS011;63009;52.584;5.932;2023-05-07T03:00:50;26.55;;;19.45;;
74528;SDS011;63009;52.584;5.932;2023-05-07T03:03:15;28.02;;;19.65;;
74528;SDS011;63009;52.584;5.932;2023-05-07T03:05:41;26.38;;;19.00;;
74528;SDS011;63009;52.584;5.932;2023-05-07T03:08:07;26.70;;;18.17;;
74528;SDS011;63009;52.584;5.932;2023-05-07T03:10:32;23.10;;;16.95;;
74528;SDS011;63009;52.584;5.932;2023-05-07T03:12:58;29.00;;;18.87;;
74528;SDS011;63009;52.584;5.932;2023-05-07T03:15:23;21.60;;;15.70;;
74528;SDS011;63009;52.584;5.932;2023-05-07T03:17:48;25.80;;;17.57;;
74528;SDS011;63009;52.584;5.932;2023-05-07T03:20:13;28.47;;;18.20;;
74528;SDS011;63009;52.584;5.932;2023-05-07T03:22:39;24.45;;;17.30;;
74528;SDS011;63009;52.584;5.932;2023-05-07T03:25:05;25.00;;;15.52;;
74528;SDS011;63009;52.584;5.932;2023-05-07T03:27:30;24.02;;;16.58;;
74528;SDS011;63009;52.584;5.932;2023-05-07T03:29:56;22.83;;;15.52;;
74528;SDS011;63009;52.584;5.932;2023-05-07T03:32:21;24.80;;;16.00;;
74528;SDS011;63009;52.584;5.932;2023-05-07T03:34:46;26.23;;;15.65;;
74528;SDS011;63009;52.584;5.932;2023-05-07T03:37:11;27.73;;;16.33;;
74528;SDS011;63009;52.584;5.932;2023-05-07T03:39:37;24.63;;;17.10;;
74528;SDS011;63009;52.584;5.932;2023-05-07T03:42:02;23.40;;;16.40;;
74528;SDS011;63009;52.584;5.932;2023-05-07T03:44:27;26.70;;;18.25;;
74528;SDS011;63009;52.584;5.932;2023-05-07T03:46:53;24.50;;;15.75;;
74528;SDS011;63009;52.584;5.932;2023-05-07T03:49:18;24.97;;;15.83;;
74528;SDS011;63009;52.584;5.932;2023-05-07T03:51:43;25.43;;;14.80;;
74528;SDS011;63009;52.584;5.932;2023-05-07T03:54:08;26.43;;;17.07;;
74528;SDS011;63009;52.584;5.932;2023-05-07T03:56:34;26.70;;;15.65;;
74528;SDS011;63009;52.584;5.932;2023-05-07T03:59:00;26.25;;;17.23;;
74528;SDS011;63009;52.584;5.932;2023-05-07T04:01:26;27.23;;;16.98;;
74528;SDS011;63009;52.584;5.932;2023-05-07T04:03:51;26.98;;;16.52;;
74528;SDS011;63009;52.584;5.932;2023-05-07T04:06:16;23.87;;;15.40;;
74528;SDS011;63009;52.584;5.932;2023-05-07T04:08:42;26.95;;;18.35;;
74528;SDS011;63009;52.584;5.932;2023-05-07T04:11:08;29.67;;;18.98;;
74528;SDS011;63009;52.584;5.932;2023-05-07T04:13:33;31.30;;;19.07;;
74528;SDS011;63009;52.584;5.932;2023-05-07T04:15:58;30.20;;;17.67;;
74528;SDS011;63009;52.584;5.932;2023-05-07T04:18:23;31.20;;;19.37;;
74528;SDS011;63009;52.584;5.932;2023-05-07T04:20:49;29.50;;;17.73;;
74528;SDS011;63009;52.584;5.932;2023-05-07T04:23:14;28.30;;;18.73;;
74528;SDS011;63009;52.584;5.932;2023-05-07T04:25:40;27.63;;;17.50;;
74528;SDS011;63009;52.584;5.932;2023-05-07T04:28:05;28.33;;;17.40;;
74528;SDS011;63009;52.584;5.932;2023-05-07T04:30:30;30.40;;;18.00;;
74528;SDS011;63009;52.584;5.932;2023-05-07T04:32:56;29.53;;;18.27;;
74528;SDS011;63009;52.584;5.932;2023-05-07T04:35:21;28.17;;;18.20;;
74528;SDS011;63009;52.584;5.932;2023-05-07T04:37:47;30.13;;;18.63;;
74528;SDS011;63009;52.584;5.932;2023-05-07T04:40:12;27.45;;;17.15;;
74528;SDS011;63009;52.584;5.932;2023-05-07T04:42:38;30.23;;;18.05;;
74528;SDS011;63009;52.584;5.932;2023-05-07T04:45:03;27.07;;;17.23;;
74528;SDS011;63009;52.584;5.932;2023-05-07T04:47:29;28.35;;;18.73;;
74528;SDS011;63009;52.584;5.932;2023-05-07T04:49:55;27.88;;;17.65;;
74528;SDS011;63009;52.584;5.932;2023-05-07T04:52:20;32.00;;;19.15;;
74528;SDS011;63009;52.584;5.932;2023-05-07T04:54:45;30.63;;;18.53;;
74528;SDS011;63009;52.584;5.932;2023-05-07T04:57:11;27.40;;;17.92;;
74528;SDS011;63009;52.584;5.932;2023-05-07T04:59:36;30.27;;;18.97;;
74528;SDS011;63009;52.584;5.932;2023-05-07T05:02:01;32.78;;;20.00;;
74528;SDS011;63009;52.584;5.932;2023-05-07T05:04:29;29.38;;;17.42;;
74528;SDS011;63009;52.584;5.932;2023-05-07T05:06:54;29.38;;;18.83;;
74528;SDS011;63009;52.584;5.932;2023-05-07T05:09:20;29.53;;;19.20;;
74528;SDS011;63009;52.584;5.932;2023-05-07T05:11:45;29.38;;;18.08;;
74528;SDS011;63009;52.584;5.932;2023-05-07T05:14:10;28.53;;;18.30;;
74528;SDS011;63009;52.584;5.932;2023-05-07T05:16:35;30.40;;;18.67;;
74528;SDS011;63009;52.584;5.932;2023-05-07T05:19:01;30.13;;;19.10;;
74528;SDS011;63009;52.584;5.932;2023-05-07T05:21:27;30.33;;;19.98;;
74528;SDS011;63009;52.584;5.932;2023-05-07T05:23:52;34.08;;;20.95;;
74528;SDS011;63009;52.584;5.932;2023-05-07T05:26:18;32.50;;;19.25;;
74528;SDS011;63009;52.584;5.932;2023-05-07T05:28:43;31.95;;;20.52;;
74528;SDS011;63009;52.584;5.932;2023-05-07T05:31:09;32.00;;;18.33;;
74528;SDS011;63009;52.584;5.932;2023-05-07T05:33:35;30.33;;;18.73;;
74528;SDS011;63009;52.584;5.932;2023-05-07T05:36:00;29.07;;;18.80;;
74528;SDS011;63009;52.584;5.932;2023-05-07T05:38:25;28.88;;;16.95;;
74528;SDS011;63009;52.584;5.932;2023-05-07T05:40:51;31.30;;;20.17;;
74528;SDS011;63009;52.584;5.932;2023-05-07T05:43:16;32.53;;;20.43;;
74528;SDS011;63009;52.584;5.932;2023-05-07T05:45:41;29.17;;;18.33;;
74528;SDS011;63009;52.584;5.932;2023-05-07T05:48:07;31.10;;;18.50;;
74528;SDS011;63009;52.584;5.932;2023-05-07T05:50:33;31.02;;;19.52;;
74528;SDS011;63009;52.584;5.932;2023-05-07T05:53:00;30.20;;;19.08;;
74528;SDS011;63009;52.584;5.932;2023-05-07T05:55:26;30.05;;;18.10;;
74528;SDS011;63009;52.584;5.932;2023-05-07T05:57:51;33.15;;;19.33;;
74528;SDS011;63009;52.584;5.932;2023-05-07T06:00:17;30.20;;;18.85;;
74528;SDS011;63009;52.584;5.932;2023-05-07T06:02:42;31.73;;;19.52;;
74528;SDS011;63009;52.584;5.932;2023-05-07T06:05:08;31.27;;;20.20;;
74528;SDS011;63009;52.584;5.932;2023-05-07T06:07:33;32.92;;;20.05;;
74528;SDS011;63009;52.584;5.932;2023-05-07T06:09:59;31.35;;;21.08;;
74528;SDS011;63009;52.584;5.932;2023-05-07T06:12:25;30.55;;;20.65;;
74528;SDS011;63009;52.584;5.932;2023-05-07T06:14:50;30.90;;;19.77;;
74528;SDS011;63009;52.584;5.932;2023-05-07T06:17:15;31.20;;;19.20;;
74528;SDS011;63009;52.584;5.932;2023-05-07T06:19:41;30.53;;;19.67;;
74528;SDS011;63009;52.584;5.932;2023-05-07T06:22:06;32.73;;;21.40;;
74528;SDS011;63009;52.584;5.932;2023-05-07T06:24:32;31.00;;;19.77;;
74528;SDS011;63009;52.584;5.932;2023-05-07T06:26:57;28.63;;;18.77;;
74528;SDS011;63009;52.584;5.932;2023-05-07T06:29:23;31.52;;;19.30;;
74528;SDS011;63009;52.584;5.932;2023-05-07T06:31:50;33.35;;;20.35;;
74528;SDS011;63009;52.584;5.932;2023-05-07T06:34:17;31.17;;;19.25;;
74528;SDS011;63009;52.584;5.932;2023-05-07T06:36:42;31.67;;;19.37;;
74528;SDS011;63009;52.584;5.932;2023-05-07T06:39:07;33.43;;;21.20;;
74528;SDS011;63009;52.584;5.932;2023-05-07T06:41:33;30.13;;;17.33;;
74528;SDS011;63009;52.584;5.932;2023-05-07T06:43:59;30.67;;;19.45;;
74528;SDS011;63009;52.584;5.932;2023-05-07T06:46:24;33.33;;;20.90;;
74528;SDS011;63009;52.584;5.932;2023-05-07T06:48:50;29.55;;;19.40;;
74528;SDS011;63009;52.584;5.932;2023-05-07T06:51:15;30.43;;;20.23;;
74528;SDS011;63009;52.584;5.932;2023-05-07T06:53:40;34.87;;;20.10;;
74528;SDS011;63009;52.584;5.932;2023-05-07T06:56:06;29.63;;;19.40;;
74528;SDS011;63009;52.584;5.932;2023-05-07T06:58:31;31.50;;;19.67;;
74528;SDS011;63009;52.584;5.932;2023-05-07T07:00:57;30.83;;;18.55;;
74528;SDS011;63009;52.584;5.932;2023-05-07T07:03:22;32.90;;;21.08;;
74528;SDS011;63009;52.584;5.932;2023-05-07T07:05:47;30.20;;;19.98;;
74528;SDS011;63009;52.584;5.932;2023-05-07T07:08:16;32.50;;;19.38;;
74528;SDS011;63009;52.584;5.932;2023-05-07T07:10:42;32.50;;;21.13;;
74528;SDS011;63009;52.584;5.932;2023-05-07T07:13:08;28.50;;;19.13;;
74528;SDS011;63009;52.584;5.932;2023-05-07T07:15:33;32.27;;;20.93;;
74528;SDS011;63009;52.584;5.932;2023-05-07T07:17:58;31.83;;;20.13;;
74528;SDS011;63009;52.584;5.932;2023-05-07T07:20:24;30.92;;;19.45;;
74528;SDS011;63009;52.584;5.932;2023-05-07T07:22:49;33.63;;;20.13;;
74528;SDS011;63009;52.584;5.932;2023-05-07T07:25:14;28.17;;;18.70;;
74528;SDS011;63009;52.584;5.932;2023-05-07T07:27:39;32.65;;;21.52;;
74528;SDS011;63009;52.584;5.932;2023-05-07T07:30:05;32.43;;;20.17;;
74528;SDS011;63009;52.584;5.932;2023-05-07T07:32:31;31.73;;;21.05;;
74528;SDS011;63009;52.584;5.932;2023-05-07T07:34:58;33.17;;;19.50;;
74528;SDS011;63009;52.584;5.932;2023-05-07T07:37:23;34.38;;;21.08;;
74528;SDS011;63009;52.584;5.932;2023-05-07T07:39:50;32.15;;;19.85;;
74528;SDS011;63009;52.584;5.932;2023-05-07T07:42:15;34.15;;;20.42;;
74528;SDS011;63009;52.584;5.932;2023-05-07T07:44:41;31.25;;;19.75;;
74528;SDS011;63009;52.584;5.932;2023-05-07T07:47:06;32.60;;;19.93;;
74528;SDS011;63009;52.584;5.932;2023-05-07T07:49:31;29.63;;;18.20;;
74528;SDS011;63009;52.584;5.932;2023-05-07T07:51:56;29.20;;;18.63;;
74528;SDS011;63009;52.584;5.932;2023-05-07T07:54:24;29.60;;;18.45;;
74528;SDS011;63009;52.584;5.932;2023-05-07T07:56:50;29.42;;;18.17;;
74528;SDS011;63009;52.584;5.932;2023-05-07T07:59:15;29.08;;;19.42;;
74528;SDS011;63009;52.584;5.932;2023-05-07T08:01:43;28.17;;;18.52;;
74528;SDS011;63009;52.584;5.932;2023-05-07T08:04:09;30.40;;;18.67;;
74528;SDS011;63009;52.584;5.932;2023-05-07T08:06:34;28.67;;;18.27;;
74528;SDS011;63009;52.584;5.932;2023-05-07T08:08:59;28.80;;;17.07;;
74528;SDS011;63009;52.584;5.932;2023-05-07T08:11:27;30.75;;;18.15;;
74528;SDS011;63009;52.584;5.932;2023-05-07T08:13:53;29.08;;;18.63;;
74528;SDS011;63009;52.584;5.932;2023-05-07T08:16:19;28.17;;;17.73;;
74528;SDS011;63009;52.584;5.932;2023-05-07T08:18:44;28.98;;;19.35;;
74528;SDS011;63009;52.584;5.932;2023-05-07T08:21:10;29.35;;;18.80;;
74528;SDS011;63009;52.584;5.932;2023-05-07T08:23:35;29.27;;;19.42;;
74528;SDS011;63009;52.584;5.932;2023-05-07T08:26:00;26.53;;;17.73;;
74528;SDS011;63009;52.584;5.932;2023-05-07T08:28:26;29.33;;;19.50;;
74528;SDS011;63009;52.584;5.932;2023-05-07T08:30:51;27.45;;;17.60;;
74528;SDS011;63009;52.584;5.932;2023-05-07T08:33:16;29.17;;;18.77;;
74528;SDS011;63009;52.584;5.932;2023-05-07T08:35:42;29.13;;;19.67;;
74528;SDS011;63009;52.584;5.932;2023-05-07T08:38:07;28.90;;;18.77;;
74528;SDS011;63009;52.584;5.932;2023-05-07T08:40:35;34.03;;;19.17;;
74528;SDS011;63009;52.584;5.932;2023-05-07T08:43:02;27.27;;;18.70;;
74528;SDS011;63009;52.584;5.932;2023-05-07T08:45:30;28.98;;;18.50;;
74528;SDS011;63009;52.584;5.932;2023-05-07T08:47:58;28.98;;;18.95;;
74528;SDS011;63009;52.584;5.932;2023-05-07T08:52:51;27.03;;;17.50;;
74528;SDS011;63009;52.584;5.932;2023-05-07T08:55:16;28.05;;;18.38;;
74528;SDS011;63009;52.584;5.932;2023-05-07T08:57:42;27.17;;;18.50;;
74528;SDS011;63009;52.584;5.932;2023-05-07T09:00:07;28.67;;;16.48;;
74528;SDS011;63009;52.584;5.932;2023-05-07T09:02:35;27.98;;;17.05;;
74528;SDS011;63009;52.584;5.932;2023-05-07T09:05:01;26.35;;;17.15;;
74528;SDS011;63009;52.584;5.932;2023-05-07T09:07:26;25.73;;;17.13;;
74528;SDS011;63009;52.584;5.932;2023-05-07T09:09:52;25.38;;;16.45;;
74528;SDS011;63009;52.584;5.932;2023-05-07T09:12:20;27.13;;;16.95;;
74528;SDS011;63009;52.584;5.932;2023-05-07T09:14:46;27.50;;;17.10;;
74528;SDS011;63009;52.584;5.932;2023-05-07T09:17:12;27.23;;;16.33;;
74528;SDS011;63009;52.584;5.932;2023-05-07T09:19:37;26.50;;;18.70;;
74528;SDS011;63009;52.584;5.932;2023-05-07T09:22:03;26.63;;;18.17;;
74528;SDS011;63009;52.584;5.932;2023-05-07T09:24:30;23.95;;;15.60;;
74528;SDS011;63009;52.584;5.932;2023-05-07T09:27:00;28.73;;;16.70;;
74528;SDS011;63009;52.584;5.932;2023-05-07T09:29:28;23.92;;;15.98;;
74528;SDS011;63009;52.584;5.932;2023-05-07T09:31:55;24.98;;;15.13;;
74528;SDS011;63009;52.584;5.932;2023-05-07T09:34:21;27.73;;;17.00;;
74528;SDS011;63009;52.584;5.932;2023-05-07T09:36:47;22.95;;;15.13;;
74528;SDS011;63009;52.584;5.932;2023-05-07T09:39:12;24.90;;;16.33;;
74528;SDS011;63009;52.584;5.932;2023-05-07T09:41:47;23.20;;;15.50;;
74528;SDS011;63009;52.584;5.932;2023-05-07T09:44:14;24.48;;;16.23;;
74528;SDS011;63009;52.584;5.932;2023-05-07T09:46:41;25.13;;;17.30;;
74528;SDS011;63009;52.584;5.932;2023-05-07T09:51:43;25.88;;;15.60;;
74528;SDS011;63009;52.584;5.932;2023-05-07T09:54:13;23.05;;;15.18;;
74528;SDS011;63009;52.584;5.932;2023-05-07T09:56:39;23.00;;;14.65;;
74528;SDS011;63009;52.584;5.932;2023-05-07T09:59:06;26.20;;;16.17;;
74528;SDS011;63009;52.584;5.932;2023-05-07T10:01:33;22.35;;;13.98;;
74528;SDS011;63009;52.584;5.932;2023-05-07T10:04:01;22.90;;;14.43;;
74528;SDS011;63009;52.584;5.932;2023-05-07T10:06:29;22.00;;;13.63;;
74528;SDS011;63009;52.584;5.932;2023-05-07T10:08:55;21.27;;;14.02;;
74528;SDS011;63009;52.584;5.932;2023-05-07T10:11:21;26.20;;;15.43;;
74528;SDS011;63009;52.584;5.932;2023-05-07T10:13:47;22.33;;;13.20;;
74528;SDS011;63009;52.584;5.932;2023-05-07T10:16:13;20.77;;;13.60;;
74528;SDS011;63009;52.584;5.932;2023-05-07T10:18:40;20.95;;;14.00;;
74528;SDS011;63009;52.584;5.932;2023-05-07T10:21:16;21.08;;;14.05;;
74528;SDS011;63009;52.584;5.932;2023-05-07T10:23:47;21.60;;;14.25;;
74528;SDS011;63009;52.584;5.932;2023-05-07T10:26:15;19.48;;;13.27;;
74528;SDS011;63009;52.584;5.932;2023-05-07T10:28:44;21.75;;;14.85;;
74528;SDS011;63009;52.584;5.932;2023-05-07T10:31:15;22.75;;;14.75;;
74528;SDS011;63009;52.584;5.932;2023-05-07T10:33:46;24.70;;;16.02;;
74528;SDS011;63009;52.584;5.932;2023-05-07T10:36:13;25.45;;;17.02;;
74528;SDS011;63009;52.584;5.932;2023-05-07T10:38:39;27.05;;;16.40;;
74528;SDS011;63009;52.584;5.932;2023-05-07T10:41:05;24.05;;;15.40;;
74528;SDS011;63009;52.584;5.932;2023-05-07T10:43:41;21.15;;;14.32;;
74528;SDS011;63009;52.584;5.932;2023-05-07T10:46:17;23.75;;;15.75;;
74528;SDS011;63009;52.584;5.932;2023-05-07T10:51:26;24.77;;;15.45;;
74528;SDS011;63009;52.584;5.932;2023-05-07T10:56:36;25.15;;;18.27;;
74528;SDS011;63009;52.584;5.932;2023-05-07T11:01:55;23.67;;;15.73;;
74528;SDS011;63009;52.584;5.932;2023-05-07T11:04:24;24.20;;;16.23;;
74528;SDS011;63009;52.584;5.932;2023-05-07T11:12:18;21.98;;;15.15;;
74528;SDS011;63009;52.584;5.932;2023-05-07T11:15:02;20.58;;;15.23;;
74528;SDS011;63009;52.584;5.932;2023-05-07T11:17:33;23.90;;;15.48;;
74528;SDS011;63009;52.584;5.932;2023-05-07T11:20:00;23.67;;;15.15;;
74528;SDS011;63009;52.584;5.932;2023-05-07T11:24:55;23.38;;;15.60;;
74528;SDS011;63009;52.584;5.932;2023-05-07T11:27:24;24.48;;;16.33;;
74528;SDS011;63009;52.584;5.932;2023-05-07T11:29:49;25.67;;;16.67;;
74528;SDS011;63009;52.584;5.932;2023-05-07T11:32:15;22.83;;;15.27;;
74528;SDS011;63009;52.584;5.932;2023-05-07T11:34:47;26.52;;;17.35;;
74528;SDS011;63009;52.584;5.932;2023-05-07T11:37:19;25.48;;;15.80;;
74528;SDS011;63009;52.584;5.932;2023-05-07T11:39:45;23.75;;;16.13;;
74528;SDS011;63009;52.584;5.932;2023-05-07T11:42:27;23.90;;;17.10;;
74528;SDS011;63009;52.584;5.932;2023-05-07T11:44:54;23.50;;;15.43;;
74528;SDS011;63009;52.584;5.932;2023-05-07T11:47:19;24.08;;;15.40;;
74528;SDS011;63009;52.584;5.932;2023-05-07T11:49:49;25.13;;;16.17;;
74528;SDS011;63009;52.584;5.932;2023-05-07T11:52:15;24.50;;;16.80;;
74528;SDS011;63009;52.584;5.932;2023-05-07T11:54:48;22.63;;;16.35;;
74528;SDS011;63009;52.584;5.932;2023-05-07T11:57:21;25.63;;;16.08;;
74528;SDS011;63009;52.584;5.932;2023-05-07T11:59:47;23.48;;;16.73;;
74528;SDS011;63009;52.584;5.932;2023-05-07T12:02:13;24.65;;;15.23;;
74528;SDS011;63009;52.584;5.932;2023-05-07T12:04:40;22.80;;;15.02;;
74528;SDS011;63009;52.584;5.932;2023-05-07T12:07:05;24.00;;;15.23;;
74528;SDS011;63009;52.584;5.932;2023-05-07T12:09:32;24.00;;;15.60;;
74528;SDS011;63009;52.584;5.932;2023-05-07T12:12:02;24.15;;;15.18;;
74528;SDS011;63009;52.584;5.932;2023-05-07T12:14:28;22.27;;;14.27;;
74528;SDS011;63009;52.584;5.932;2023-05-07T12:16:54;25.27;;;15.65;;
74528;SDS011;63009;52.584;5.932;2023-05-07T12:19:19;24.83;;;16.90;;
74528;SDS011;63009;52.584;5.932;2023-05-07T12:21:45;23.58;;;15.48;;
74528;SDS011;63009;52.584;5.932;2023-05-07T12:24:10;22.47;;;15.23;;
74528;SDS011;63009;52.584;5.932;2023-05-07T12:26:38;24.33;;;14.77;;
74528;SDS011;63009;52.584;5.932;2023-05-07T12:29:05;25.48;;;16.88;;
74528;SDS011;63009;52.584;5.932;2023-05-07T12:31:30;22.63;;;14.73;;
74528;SDS011;63009;52.584;5.932;2023-05-07T12:33:56;24.73;;;15.90;;
74528;SDS011;63009;52.584;5.932;2023-05-07T12:36:21;27.58;;;16.67;;
74528;SDS011;63009;52.584;5.932;2023-05-07T12:38:48;26.00;;;16.93;;
74528;SDS011;63009;52.584;5.932;2023-05-07T12:43:40;25.38;;;16.33;;
74528;SDS011;63009;52.584;5.932;2023-05-07T12:46:09;25.30;;;16.15;;
74528;SDS011;63009;52.584;5.932;2023-05-07T12:48:38;23.15;;;14.48;;
74528;SDS011;63009;52.584;5.932;2023-05-07T12:51:03;21.83;;;13.82;;
74528;SDS011;63009;52.584;5.932;2023-05-07T12:53:30;22.77;;;15.52;;
74528;SDS011;63009;52.584;5.932;2023-05-07T12:55:57;24.73;;;14.00;;
74528;SDS011;63009;52.584;5.932;2023-05-07T13:00:52;24.85;;;14.77;;
74528;SDS011;63009;52.584;5.932;2023-05-07T13:03:21;22.83;;;15.05;;
74528;SDS011;63009;52.584;5.932;2023-05-07T13:05:48;24.60;;;14.07;;
74528;SDS011;63009;52.584;5.932;2023-05-07T13:08:23;23.00;;;14.80;;
74528;SDS011;63009;52.584;5.932;2023-05-07T13:10:49;20.55;;;14.05;;
74528;SDS011;63009;52.584;5.932;2023-05-07T13:13:14;19.87;;;12.97;;
74528;SDS011;63009;52.584;5.932;2023-05-07T13:15:39;19.67;;;12.40;;
74528;SDS011;63009;52.584;5.932;2023-05-07T13:18:05;23.27;;;13.80;;
74528;SDS011;63009;52.584;5.932;2023-05-07T13:20:30;24.73;;;15.60;;
74528;SDS011;63009;52.584;5.932;2023-05-07T13:22:58;22.55;;;15.50;;
74528;SDS011;63009;52.584;5.932;2023-05-07T13:25:26;23.98;;;14.55;;
74528;SDS011;63009;52.584;5.932;2023-05-07T13:27:51;24.15;;;15.95;;
74528;SDS011;63009;52.584;5.932;2023-05-07T13:30:16;21.53;;;14.33;;
74528;SDS011;63009;52.584;5.932;2023-05-07T13:32:41;19.67;;;13.33;;
74528;SDS011;63009;52.584;5.932;2023-05-07T13:35:07;19.90;;;13.40;;
74528;SDS011;63009;52.584;5.932;2023-05-07T13:37:32;18.88;;;11.52;;
74528;SDS011;63009;52.584;5.932;2023-05-07T13:39:57;22.23;;;14.23;;
74528;SDS011;63009;52.584;5.932;2023-05-07T13:42:23;22.47;;;15.20;;
74528;SDS011;63009;52.584;5.932;2023-05-07T13:44:48;21.80;;;14.87;;
74528;SDS011;63009;52.584;5.932;2023-05-07T13:47:13;24.37;;;15.37;;
74528;SDS011;63009;52.584;5.932;2023-05-07T13:49:38;22.77;;;13.87;;
74528;SDS011;63009;52.584;5.932;2023-05-07T13:52:04;22.37;;;13.60;;
74528;SDS011;63009;52.584;5.932;2023-05-07T13:54:29;21.40;;;15.23;;
74528;SDS011;63009;52.584;5.932;2023-05-07T13:56:54;21.50;;;14.55;;
74528;SDS011;63009;52.584;5.932;2023-05-07T13:59:20;24.20;;;14.18;;
74528;SDS011;63009;52.584;5.932;2023-05-07T14:01:45;22.10;;;14.53;;
74528;SDS011;63009;52.584;5.932;2023-05-07T14:04:10;21.98;;;13.40;;
74528;SDS011;63009;52.584;5.932;2023-05-07T14:06:36;22.05;;;13.93;;
74528;SDS011;63009;52.584;5.932;2023-05-07T14:09:01;23.73;;;15.50;;
74528;SDS011;63009;52.584;5.932;2023-05-07T14:11:26;22.23;;;14.80;;
74528;SDS011;63009;52.584;5.932;2023-05-07T14:13:51;21.40;;;14.20;;
74528;SDS011;63009;52.584;5.932;2023-05-07T14:16:17;20.20;;;12.93;;
74528;SDS011;63009;52.584;5.932;2023-05-07T14:18:42;25.17;;;14.93;;
74528;SDS011;63009;52.584;5.932;2023-05-07T14:21:07;25.10;;;16.53;;
74528;SDS011;63009;52.584;5.932;2023-05-07T14:23:34;23.30;;;15.63;;
74528;SDS011;63009;52.584;5.932;2023-05-07T14:25:59;21.88;;;15.25;;
74528;SDS011;63009;52.584;5.932;2023-05-07T14:28:25;21.23;;;14.60;;
74528;SDS011;63009;52.584;5.932;2023-05-07T14:30:50;21.58;;;16.02;;
74528;SDS011;63009;52.584;5.932;2023-05-07T14:33:15;21.77;;;14.85;;
74528;SDS011;63009;52.584;5.932;2023-05-07T14:35:42;23.38;;;14.82;;
74528;SDS011;63009;52.584;5.932;2023-05-07T14:38:12;22.58;;;15.52;;
74528;SDS011;63009;52.584;5.932;2023-05-07T14:40:37;23.33;;;15.77;;